Marion, Utah
Current Conditions -  °F | °C
As of 10:53 PM on Saturday 22 Nov 2014 (Local Time) from KEVW Reporting Station
Broken Clouds Broken Clouds  
Wind Chill: 16°   Ceiling: 2900
Heat Index: 27°   Visibility: 10mi
Dew Point: 23°   Wind: 14mph
Humidity: 85%   Direction: 270°W
Pressure: 29.86"   Gusts: NA
Location:  40.8065°N, 110.723°W
Report Text: KEVW 230553Z AUTO 27012KT 10SM FEW022 BKN029 BKN037 M03/M05 A2986 RMK AO2 SLP114 60002 T10281050 11006 21033 51021
Loading
Personal Weather Stations






























Interactive Weather Map New forecast layout! Learn more

10-Day Weather Forecast

Advertisements
Track Severe Weather on mobile